Time;durP1;ratioP1;P1;durP2;ratioP2;P2;SDS_P1;SDS_P2;PMS_P1;PMS_P2;Temp;Humidity;BMP_temperature;BMP_pressure;BME280_temperature;BME280_humidity;BME280_pressure;Samples;Min_cycle;Max_cycle;Signal;HPM_P1;HPM_P2
2021/08/05 00:00:33;;;;;;;;;6.00;6.00;;;;;;;;5074787;27;50974;-67
2021/08/05 00:02:58;;;;;;;;;7.00;6.00;;;;;;;;5074912;28;51255;-67
2021/08/05 00:05:23;;;;;;;;;6.33;6.33;;;;;;;;5075105;28;50851;-67
2021/08/05 00:07:49;;;;;;;;;5.00;5.00;;;;;;;;5074537;27;51955;-68
2021/08/05 00:10:14;;;;;;;;;5.00;5.00;;;;;;;;5074700;27;51045;-65
2021/08/05 00:12:39;;;;;;;;;6.33;6.33;;;;;;;;5073296;28;51235;-66
2021/08/05 00:15:05;;;;;;;;;6.00;6.00;;;;;;;;5073926;28;51457;-66
2021/08/05 00:17:30;;;;;;;;;5.00;5.00;;;;;;;;5073249;28;51883;-67
2021/08/05 00:19:55;;;;;;;;;7.00;6.33;;;;;;;;5075100;28;50923;-66
2021/08/05 00:22:21;;;;;;;;;7.00;7.00;;;;;;;;5070659;27;51241;-67
2021/08/05 00:24:46;;;;;;;;;7.67;7.67;;;;;;;;5066996;28;51022;-66
2021/08/05 00:27:11;;;;;;;;;5.00;5.00;;;;;;;;5074424;27;51115;-67
2021/08/05 00:29:36;;;;;;;;;8.67;7.00;;;;;;;;5075101;28;50824;-68
2021/08/05 00:32:01;;;;;;;;;8.67;8.67;;;;;;;;5074722;27;50962;-67
2021/08/05 00:34:27;;;;;;;;;7.67;7.00;;;;;;;;5074468;27;50877;-68
2021/08/05 00:36:52;;;;;;;;;7.00;6.00;;;;;;;;5074152;27;51016;-67
2021/08/05 00:39:17;;;;;;;;;6.67;6.33;;;;;;;;5074544;27;51085;-67
2021/08/05 00:41:42;;;;;;;;;7.00;6.67;;;;;;;;5074162;27;51264;-68
2021/08/05 00:44:08;;;;;;;;;7.33;7.33;;;;;;;;5074685;27;51360;-68
2021/08/05 00:46:33;;;;;;;;;7.67;7.33;;;;;;;;5074039;27;51713;-67
2021/08/05 00:48:59;;;;;;;;;6.00;6.00;;;;;;;;5074466;27;51001;-67
2021/08/05 00:51:24;;;;;;;;;7.00;7.00;;;;;;;;5074276;27;50958;-65
2021/08/05 00:53:49;;;;;;;;;8.00;8.00;;;;;;;;5074689;28;51249;-67
2021/08/05 00:56:14;;;;;;;;;6.00;6.00;;;;;;;;5073666;28;51129;-66
2021/08/05 00:58:39;;;;;;;;;6.67;6.67;;;;;;;;5074292;27;51187;-67
2021/08/05 01:01:08;;;;;;;;;10.67;9.00;;;;;;;;5074167;27;51220;-67
2021/08/05 01:03:35;;;;;;;;;7.00;7.00;;;;;;;;5074662;27;50908;-67
2021/08/05 01:06:07;;;;;;;;;7.33;7.00;;;;;;;;5073537;27;51502;-67
2021/08/05 01:08:34;;;;;;;;;7.67;7.67;;;;;;;;5073825;27;51047;-65
2021/08/05 01:11:08;;;;;;;;;8.67;8.67;;;;;;;;5073643;27;51136;-67
2021/08/05 01:13:34;;;;;;;;;11.33;10.00;;;;;;;;5074128;27;51153;-68
2021/08/05 01:16:00;;;;;;;;;7.33;7.33;;;;;;;;5063196;27;51050;-67
2021/08/05 01:18:27;;;;;;;;;5.33;5.33;;;;;;;;5073737;27;50922;-67
2021/08/05 01:20:52;;;;;;;;;7.00;7.00;;;;;;;;5074170;27;51102;-67
2021/08/05 01:23:18;;;;;;;;;7.00;6.00;;;;;;;;5073890;27;51410;-67
2021/08/05 01:25:43;;;;;;;;;6.75;6.75;;;;;;;;5073874;27;51016;-65
2021/08/05 01:28:09;;;;;;;;;6.33;6.33;;;;;;;;5073724;27;51092;-67
2021/08/05 01:30:35;;;;;;;;;9.67;8.00;;;;;;;;5074034;28;51197;-67
2021/08/05 01:33:00;;;;;;;;;7.00;7.00;;;;;;;;5073793;28;51159;-68
2021/08/05 01:35:26;;;;;;;;;8.00;7.00;;;;;;;;5073739;27;51976;-68
2021/08/05 01:37:51;;;;;;;;;9.33;9.00;;;;;;;;5073637;27;51170;-67
2021/08/05 01:40:17;;;;;;;;;8.00;8.00;;;;;;;;5073394;27;50859;-67
2021/08/05 01:42:43;;;;;;;;;8.00;8.00;;;;;;;;5073788;27;51364;-68
2021/08/05 01:45:09;;;;;;;;;9.00;9.00;;;;;;;;5073032;27;51200;-67
2021/08/05 01:47:36;;;;;;;;;9.33;8.33;;;;;;;;5071787;28;51196;-68
2021/08/05 01:50:01;;;;;;;;;9.33;9.33;;;;;;;;5073436;28;51057;-67
2021/08/05 01:52:26;;;;;;;;;14.00;12.00;;;;;;;;5073505;27;51402;-66
2021/08/05 01:54:52;;;;;;;;;9.33;9.33;;;;;;;;5072764;27;51856;-66
2021/08/05 01:57:17;;;;;;;;;8.33;8.33;;;;;;;;5073219;28;50997;-67
2021/08/05 01:59:42;;;;;;;;;10.00;10.00;;;;;;;;5073215;28;51134;-67
2021/08/05 02:02:08;;;;;;;;;8.00;8.00;;;;;;;;5073538;27;51484;-67
2021/08/05 02:04:46;;;;;;;;;10.00;9.00;;;;;;;;5072883;27;52179;-66
2021/08/05 02:07:19;;;;;;;;;12.67;11.67;;;;;;;;5072759;27;51187;-69
2021/08/05 02:10:04;;;;;;;;;12.33;12.33;;;;;;;;5072980;27;51073;-67
2021/08/05 02:12:32;;;;;;;;;11.00;11.00;;;;;;;;5072653;27;51040;-67
2021/08/05 02:14:57;;;;;;;;;12.67;12.67;;;;;;;;5072945;27;51092;-67
2021/08/05 02:17:23;;;;;;;;;13.67;12.33;;;;;;;;5072681;27;51119;-67
2021/08/05 02:19:48;;;;;;;;;12.33;11.33;;;;;;;;5073087;28;51073;-66
2021/08/05 02:22:17;;;;;;;;;11.33;11.33;;;;;;;;5072957;27;51184;-67
2021/08/05 02:24:42;;;;;;;;;12.00;12.00;;;;;;;;5072570;27;52098;-67
2021/08/05 02:27:07;;;;;;;;;11.67;11.33;;;;;;;;5072701;27;51070;-67
2021/08/05 02:29:33;;;;;;;;;11.67;11.67;;;;;;;;5072852;27;51427;-67
2021/08/05 02:31:58;;;;;;;;;13.33;11.67;;;;;;;;5071596;28;51299;-68
2021/08/05 02:34:24;;;;;;;;;10.00;8.33;;;;;;;;5072462;27;53126;-67
2021/08/05 02:36:50;;;;;;;;;12.00;12.00;;;;;;;;5072388;27;51052;-66
2021/08/05 02:39:15;;;;;;;;;11.33;11.33;;;;;;;;5072705;27;51185;-67
2021/08/05 02:41:41;;;;;;;;;12.33;11.67;;;;;;;;5071157;28;50956;-67
2021/08/05 02:44:07;;;;;;;;;9.67;9.00;;;;;;;;5072439;27;50977;-67
2021/08/05 02:46:32;;;;;;;;;8.33;8.33;;;;;;;;5072541;27;50951;-67
2021/08/05 02:48:58;;;;;;;;;11.67;10.67;;;;;;;;5072722;27;50972;-67
2021/08/05 02:51:24;;;;;;;;;8.00;8.00;;;;;;;;5071026;28;50820;-67
2021/08/05 02:53:49;;;;;;;;;8.00;8.00;;;;;;;;5072417;28;52327;-67
2021/08/05 02:56:16;;;;;;;;;10.67;9.33;;;;;;;;5071958;27;51123;-68
2021/08/05 02:58:41;;;;;;;;;8.00;8.00;;;;;;;;5075972;27;51029;-67
2021/08/05 03:01:06;;;;;;;;;9.67;9.67;;;;;;;;5076054;27;51271;-66
2021/08/05 03:03:32;;;;;;;;;10.33;10.33;;;;;;;;5075945;28;50943;-66
2021/08/05 03:05:57;;;;;;;;;8.67;8.67;;;;;;;;5075904;27;51027;-67
2021/08/05 03:08:22;;;;;;;;;8.67;8.67;;;;;;;;5075860;28;50997;-67
2021/08/05 03:10:48;;;;;;;;;6.33;5.00;;;;;;;;5075778;27;50948;-67
2021/08/05 03:13:13;;;;;;;;;8.00;7.67;;;;;;;;5074292;28;53472;-67
2021/08/05 03:15:38;;;;;;;;;10.33;10.00;;;;;;;;5071646;27;51001;-66
2021/08/05 03:18:04;;;;;;;;;8.33;8.33;;;;;;;;5074153;28;51117;-67
2021/08/05 03:20:29;;;;;;;;;12.00;11.67;;;;;;;;5075962;27;51016;-67
2021/08/05 03:22:57;;;;;;;;;8.67;8.33;;;;;;;;5075813;27;51770;-67
2021/08/05 03:25:22;;;;;;;;;9.00;8.67;;;;;;;;5075456;27;50994;-67
2021/08/05 03:27:47;;;;;;;;;9.67;9.33;;;;;;;;5075770;28;50922;-67
2021/08/05 03:30:12;;;;;;;;;11.67;10.33;;;;;;;;5075977;27;51156;-67
2021/08/05 03:32:37;;;;;;;;;8.00;8.00;;;;;;;;5075639;27;51075;-67
2021/08/05 03:35:03;;;;;;;;;11.33;11.00;;;;;;;;5075560;27;50970;-66
2021/08/05 03:37:28;;;;;;;;;10.67;9.33;;;;;;;;5075661;27;51195;-67
2021/08/05 03:39:54;;;;;;;;;11.33;11.33;;;;;;;;5075332;28;51141;-67
2021/08/05 03:42:19;;;;;;;;;12.33;11.33;;;;;;;;5075306;27;50958;-67
2021/08/05 03:44:44;;;;;;;;;11.33;10.00;;;;;;;;5075609;27;50850;-67
2021/08/05 03:47:09;;;;;;;;;10.00;10.00;;;;;;;;5075546;27;51160;-67
2021/08/05 03:49:34;;;;;;;;;11.00;10.00;;;;;;;;5075280;27;50890;-68
2021/08/05 03:52:00;;;;;;;;;12.50;9.75;;;;;;;;5075053;27;51323;-67
2021/08/05 03:54:25;;;;;;;;;11.67;11.67;;;;;;;;5074759;28;50997;-67
2021/08/05 03:56:50;;;;;;;;;13.33;12.33;;;;;;;;5075574;27;50872;-67
2021/08/05 03:59:15;;;;;;;;;11.67;11.33;;;;;;;;5075200;27;50864;-68
2021/08/05 04:01:40;;;;;;;;;12.67;10.67;;;;;;;;5075011;28;52123;-65
2021/08/05 04:04:06;;;;;;;;;14.67;12.67;;;;;;;;5074890;27;50970;-66
2021/08/05 04:06:31;;;;;;;;;12.00;11.67;;;;;;;;5075019;27;50881;-66
2021/08/05 04:08:56;;;;;;;;;12.67;12.33;;;;;;;;5074748;27;51089;-66
2021/08/05 04:11:21;;;;;;;;;14.25;12.75;;;;;;;;5075061;27;50981;-66
2021/08/05 04:13:47;;;;;;;;;15.33;15.33;;;;;;;;5075663;27;50974;-65
2021/08/05 04:16:12;;;;;;;;;14.33;14.33;;;;;;;;5075581;27;51113;-65
2021/08/05 04:18:37;;;;;;;;;15.67;15.00;;;;;;;;5075296;28;50850;-65
2021/08/05 04:21:02;;;;;;;;;14.50;14.50;;;;;;;;5075129;27;51143;-67
2021/08/05 04:23:27;;;;;;;;;15.67;14.33;;;;;;;;5074886;27;51183;-65
2021/08/05 04:25:53;;;;;;;;;16.67;16.33;;;;;;;;5074954;27;51083;-66
2021/08/05 04:28:18;;;;;;;;;16.67;16.00;;;;;;;;5075125;27;51469;-67
2021/08/05 04:30:44;;;;;;;;;12.67;12.67;;;;;;;;5074527;27;51851;-68
2021/08/05 04:33:09;;;;;;;;;16.25;12.25;;;;;;;;5074088;27;51107;-67
2021/08/05 04:35:34;;;;;;;;;14.25;14.25;;;;;;;;5074973;27;51266;-67
2021/08/05 04:38:00;;;;;;;;;14.33;14.33;;;;;;;;5074749;27;50895;-67
2021/08/05 04:40:28;;;;;;;;;16.67;16.67;;;;;;;;5074009;27;51197;-67
2021/08/05 04:42:53;;;;;;;;;15.00;15.00;;;;;;;;5074265;27;51021;-68
2021/08/05 04:45:19;;;;;;;;;14.00;14.00;;;;;;;;5074814;27;50841;-67
2021/08/05 04:47:53;;;;;;;;;17.00;16.33;;;;;;;;5074624;27;51303;-67
2021/08/05 04:50:19;;;;;;;;;14.00;13.67;;;;;;;;5074512;27;51008;-67
2021/08/05 04:52:44;;;;;;;;;15.67;15.00;;;;;;;;5074210;27;50930;-67
2021/08/05 04:55:09;;;;;;;;;13.33;13.33;;;;;;;;5074394;27;51118;-66
2021/08/05 04:57:44;;;;;;;;;14.50;14.25;;;;;;;;5074472;27;51138;-67
2021/08/05 05:00:10;;;;;;;;;14.67;13.67;;;;;;;;5074180;27;50897;-67
2021/08/05 05:02:35;;;;;;;;;15.25;14.50;;;;;;;;5074121;27;51033;-68
2021/08/05 05:05:00;;;;;;;;;15.25;15.25;;;;;;;;5074356;27;50911;-66
2021/08/05 05:07:26;;;;;;;;;13.67;12.33;;;;;;;;5074130;27;51458;-67
2021/08/05 05:09:51;;;;;;;;;16.00;15.00;;;;;;;;5073839;27;52124;-67
2021/08/05 05:12:16;;;;;;;;;13.75;13.75;;;;;;;;5074028;27;50898;-68
2021/08/05 05:14:44;;;;;;;;;16.50;16.25;;;;;;;;5073897;27;50843;-67
2021/08/05 05:17:09;;;;;;;;;16.00;16.00;;;;;;;;5068849;27;53137;-67
2021/08/05 05:19:35;;;;;;;;;15.50;13.00;;;;;;;;5061817;28;51405;-67
2021/08/05 05:22:00;;;;;;;;;14.67;14.00;;;;;;;;5072686;27;51147;-68
2021/08/05 05:24:25;;;;;;;;;15.00;15.00;;;;;;;;5073660;27;50960;-67
2021/08/05 05:26:50;;;;;;;;;12.33;11.67;;;;;;;;5073951;27;51241;-67
2021/08/05 05:29:15;;;;;;;;;14.00;13.33;;;;;;;;5073640;27;52023;-67
2021/08/05 05:31:41;;;;;;;;;16.00;14.00;;;;;;;;5073592;27;51060;-67
2021/08/05 05:34:06;;;;;;;;;16.00;15.33;;;;;;;;5073546;27;51093;-68
2021/08/05 05:36:31;;;;;;;;;14.00;13.00;;;;;;;;5073451;27;51378;-67
2021/08/05 05:38:56;;;;;;;;;15.00;15.00;;;;;;;;5073348;27;52907;-67
2021/08/05 05:41:21;;;;;;;;;17.25;16.50;;;;;;;;5073186;27;51062;-67
2021/08/05 05:43:47;;;;;;;;;19.25;17.50;;;;;;;;5073844;28;50940;-67
2021/08/05 05:46:12;;;;;;;;;14.33;13.67;;;;;;;;5073701;27;51334;-68
2021/08/05 05:48:38;;;;;;;;;14.50;14.50;;;;;;;;5073506;27;51993;-67
2021/08/05 05:51:03;;;;;;;;;17.25;15.75;;;;;;;;5073250;27;51730;-67
2021/08/05 05:53:28;;;;;;;;;14.50;14.25;;;;;;;;5073458;27;50956;-68
2021/08/05 05:55:53;;;;;;;;;23.50;22.25;;;;;;;;5072759;27;50990;-65
2021/08/05 05:58:19;;;;;;;;;15.00;14.25;;;;;;;;5073359;27;50963;-68
2021/08/05 06:00:44;;;;;;;;;14.50;14.50;;;;;;;;5072932;27;51093;-68
2021/08/05 06:03:09;;;;;;;;;15.25;14.75;;;;;;;;5073601;27;51123;-67
2021/08/05 06:05:34;;;;;;;;;14.75;14.75;;;;;;;;5073025;27;51261;-66
2021/08/05 06:08:00;;;;;;;;;12.50;12.50;;;;;;;;5073051;27;51894;-67
2021/08/05 06:10:25;;;;;;;;;14.00;13.00;;;;;;;;5072553;27;51061;-67
2021/08/05 06:12:50;;;;;;;;;14.25;14.25;;;;;;;;5072876;27;51537;-67
2021/08/05 06:15:17;;;;;;;;;15.67;15.67;;;;;;;;5071627;28;51216;-67
2021/08/05 06:17:42;;;;;;;;;12.67;12.67;;;;;;;;5072991;27;52248;-67
2021/08/05 06:20:09;;;;;;;;;12.00;12.00;;;;;;;;5072754;27;50924;-66
2021/08/05 06:22:34;;;;;;;;;14.00;12.67;;;;;;;;5073148;27;51013;-66
2021/08/05 06:24:59;;;;;;;;;14.33;13.33;;;;;;;;5072576;28;51021;-65
2021/08/05 06:27:25;;;;;;;;;16.33;14.67;;;;;;;;5072404;27;51205;-66
2021/08/05 06:29:51;;;;;;;;;13.00;12.33;;;;;;;;5072587;27;50986;-66
2021/08/05 06:32:16;;;;;;;;;16.67;16.00;;;;;;;;5072252;27;51063;-67
2021/08/05 06:34:41;;;;;;;;;16.33;15.00;;;;;;;;5072713;27;51005;-67
2021/08/05 06:37:06;;;;;;;;;11.00;11.00;;;;;;;;5072038;27;52034;-66
2021/08/05 06:39:32;;;;;;;;;11.67;11.33;;;;;;;;5071918;27;50960;-67
2021/08/05 06:41:57;;;;;;;;;13.67;13.67;;;;;;;;5071200;28;50900;-66
2021/08/05 06:44:22;;;;;;;;;15.00;13.00;;;;;;;;5072555;27;51631;-67
2021/08/05 06:46:47;;;;;;;;;13.00;12.33;;;;;;;;5072068;27;52064;-67
2021/08/05 06:49:13;;;;;;;;;14.00;14.00;;;;;;;;5072242;27;51025;-67
2021/08/05 06:51:38;;;;;;;;;15.00;14.67;;;;;;;;5072609;28;51025;-67
2021/08/05 06:54:03;;;;;;;;;14.00;13.67;;;;;;;;5072084;27;51269;-68
2021/08/05 06:56:28;;;;;;;;;15.00;13.00;;;;;;;;5070227;28;52022;-67
2021/08/05 06:58:53;;;;;;;;;10.67;10.67;;;;;;;;5072172;28;50939;-67
2021/08/05 07:01:19;;;;;;;;;12.67;12.33;;;;;;;;5072092;27;50830;-68
2021/08/05 07:03:44;;;;;;;;;14.00;13.00;;;;;;;;5071992;27;51358;-69
2021/08/05 07:06:09;;;;;;;;;15.67;14.33;;;;;;;;5063474;27;51980;-67
2021/08/05 07:08:35;;;;;;;;;14.00;12.33;;;;;;;;5071221;28;50922;-66
2021/08/05 07:11:02;;;;;;;;;13.33;12.33;;;;;;;;5071218;27;50787;-66
2021/08/05 07:13:27;;;;;;;;;11.67;11.33;;;;;;;;5071681;27;50977;-67
2021/08/05 07:15:52;;;;;;;;;14.00;12.67;;;;;;;;5071207;27;52628;-66
2021/08/05 07:18:17;;;;;;;;;14.33;13.33;;;;;;;;5064946;27;50912;-67
2021/08/05 07:20:43;;;;;;;;;18.33;15.00;;;;;;;;5070955;28;51296;-67
2021/08/05 07:23:08;;;;;;;;;15.67;14.67;;;;;;;;5071917;27;51332;-67
2021/08/05 07:25:33;;;;;;;;;13.00;12.00;;;;;;;;5070793;27;51949;-67
2021/08/05 07:28:01;;;;;;;;;13.33;13.00;;;;;;;;5071518;28;51061;-67
2021/08/05 07:30:27;;;;;;;;;14.00;12.33;;;;;;;;5071848;27;51000;-67
2021/08/05 07:32:52;;;;;;;;;12.67;12.67;;;;;;;;5071938;28;51294;-67
2021/08/05 07:35:17;;;;;;;;;13.00;13.00;;;;;;;;5071357;28;52168;-66
2021/08/05 07:37:42;;;;;;;;;14.33;13.67;;;;;;;;5071261;27;51107;-67
2021/08/05 07:40:08;;;;;;;;;14.00;14.00;;;;;;;;5070846;27;50956;-67
2021/08/05 07:42:33;;;;;;;;;18.00;17.33;;;;;;;;5071971;28;50933;-68
2021/08/05 07:44:58;;;;;;;;;13.33;12.00;;;;;;;;5073074;27;51075;-68
2021/08/05 07:47:24;;;;;;;;;13.50;13.50;;;;;;;;5075358;27;50886;-66
2021/08/05 07:49:50;;;;;;;;;15.00;12.00;;;;;;;;5075128;28;51001;-67
2021/08/05 07:52:15;;;;;;;;;14.33;14.00;;;;;;;;5073910;28;50834;-68
2021/08/05 07:54:41;;;;;;;;;13.67;13.67;;;;;;;;5074624;27;51789;-67
2021/08/05 07:57:06;;;;;;;;;12.33;12.00;;;;;;;;5075311;28;50874;-67
2021/08/05 07:59:34;;;;;;;;;12.67;12.00;;;;;;;;5075098;28;51018;-67
2021/08/05 08:01:59;;;;;;;;;14.67;12.00;;;;;;;;5075317;28;50897;-68
2021/08/05 08:04:25;;;;;;;;;13.67;13.67;;;;;;;;5074646;27;51060;-66
2021/08/05 08:06:50;;;;;;;;;22.75;22.25;;;;;;;;5074529;27;51213;-66
2021/08/05 08:09:15;;;;;;;;;15.33;14.00;;;;;;;;5074442;28;50970;-66
2021/08/05 08:11:40;;;;;;;;;16.33;14.33;;;;;;;;5075297;27;51347;-67
2021/08/05 08:14:06;;;;;;;;;15.67;14.67;;;;;;;;5074215;27;51890;-67
2021/08/05 08:16:31;;;;;;;;;13.00;13.00;;;;;;;;5074744;27;51155;-67
2021/08/05 08:18:56;;;;;;;;;14.00;14.00;;;;;;;;5074708;27;51714;-67
2021/08/05 08:21:21;;;;;;;;;14.33;14.33;;;;;;;;5074994;28;51088;-66
2021/08/05 08:23:47;;;;;;;;;15.33;15.00;;;;;;;;5074287;28;52247;-68
2021/08/05 08:26:13;;;;;;;;;16.67;16.33;;;;;;;;5074116;27;51024;-66
2021/08/05 08:28:38;;;;;;;;;15.00;15.00;;;;;;;;5074659;27;51030;-65
2021/08/05 08:31:03;;;;;;;;;16.00;15.00;;;;;;;;5073517;28;50941;-67
2021/08/05 08:33:29;;;;;;;;;20.25;20.00;;;;;;;;5074113;27;53045;-68
2021/08/05 08:35:54;;;;;;;;;17.67;17.67;;;;;;;;5074235;28;50902;-67
2021/08/05 08:38:22;;;;;;;;;17.00;17.00;;;;;;;;5074248;27;51010;-67
2021/08/05 08:40:48;;;;;;;;;13.50;13.25;;;;;;;;5074206;27;51104;-68
2021/08/05 08:43:13;;;;;;;;;17.33;16.00;;;;;;;;5073604;27;51171;-67
2021/08/05 08:45:39;;;;;;;;;14.33;14.00;;;;;;;;5073935;27;51178;-67
2021/08/05 08:48:05;;;;;;;;;14.67;14.67;;;;;;;;5074097;27;51004;-68
2021/08/05 08:50:32;;;;;;;;;14.33;14.33;;;;;;;;5074529;27;51063;-68
2021/08/05 08:53:02;;;;;;;;;13.75;13.00;;;;;;;;5073223;27;51885;-67
2021/08/05 08:55:27;;;;;;;;;14.33;14.00;;;;;;;;5072974;28;50884;-66
2021/08/05 08:57:57;;;;;;;;;15.33;15.33;;;;;;;;5072762;28;51001;-65
2021/08/05 09:00:22;;;;;;;;;14.67;14.33;;;;;;;;5074291;27;51233;-66
2021/08/05 09:02:48;;;;;;;;;12.67;12.67;;;;;;;;5073315;27;51799;-65
2021/08/05 09:05:13;;;;;;;;;14.00;14.00;;;;;;;;5051849;28;50987;-69
2021/08/05 09:07:38;;;;;;;;;9.00;9.00;;;;;;;;5071380;28;51124;-66
2021/08/05 09:10:04;;;;;;;;;15.00;15.00;;;;;;;;5073288;27;50918;-66
2021/08/05 09:12:29;;;;;;;;;18.67;16.00;;;;;;;;5071775;28;52064;-68
2021/08/05 09:14:54;;;;;;;;;14.33;13.67;;;;;;;;5072143;28;51032;-68
2021/08/05 09:17:22;;;;;;;;;12.00;11.33;;;;;;;;5073418;28;50998;-65
2021/08/05 09:19:50;;;;;;;;;17.33;14.33;;;;;;;;5063114;27;51216;-66
2021/08/05 09:22:36;;;;;;;;;12.67;12.67;;;;;;;;5071015;28;51892;-65
2021/08/05 09:25:20;;;;;;;;;15.67;13.67;;;;;;;;5072400;28;51053;-67
2021/08/05 09:27:49;;;;;;;;;13.00;13.00;;;;;;;;5073366;27;51224;-67
2021/08/05 09:30:32;;;;;;;;;13.00;12.00;;;;;;;;5073038;27;50894;-66
2021/08/05 09:33:02;;;;;;;;;12.00;12.00;;;;;;;;5073156;28;51885;-67
2021/08/05 09:35:27;;;;;;;;;12.67;12.00;;;;;;;;5072770;27;50954;-67
2021/08/05 09:37:52;;;;;;;;;15.00;14.33;;;;;;;;5072998;27;51014;-67
2021/08/05 09:40:18;;;;;;;;;13.33;12.33;;;;;;;;5073333;27;51326;-65
2021/08/05 09:42:54;;;;;;;;;12.00;12.00;;;;;;;;5072790;27;52066;-67
2021/08/05 09:45:31;;;;;;;;;14.67;13.67;;;;;;;;5071560;27;51115;-66
2021/08/05 09:47:58;;;;;;;;;12.00;11.67;;;;;;;;5072408;27;51251;-66
2021/08/05 09:50:24;;;;;;;;;12.00;12.00;;;;;;;;5072849;27;51255;-66
2021/08/05 09:52:49;;;;;;;;;9.67;9.67;;;;;;;;5072555;27;51118;-68
2021/08/05 09:55:20;;;;;;;;;12.67;12.00;;;;;;;;5072094;27;50927;-65
2021/08/05 09:57:55;;;;;;;;;10.67;10.67;;;;;;;;5072769;27;51196;-66
2021/08/05 10:00:20;;;;;;;;;8.00;8.00;;;;;;;;5072539;27;50932;-66
2021/08/05 10:02:47;;;;;;;;;8.00;8.00;;;;;;;;5072123;27;51048;-66
2021/08/05 10:05:25;;;;;;;;;1.00;1.00;;;;;;;;5072699;27;51106;-67
2021/08/05 10:07:54;;;;;;;;;8.67;8.00;;;;;;;;5071917;28;50931;-66
2021/08/05 10:10:21;;;;;;;;;9.67;9.67;;;;;;;;5072232;27;51422;-65
2021/08/05 10:13:04;;;;;;;;;6.33;6.33;;;;;;;;5072136;27;52999;-67
2021/08/05 10:15:29;;;;;;;;;9.33;8.00;;;;;;;;5072152;27;51077;-65
2021/08/05 10:17:56;;;;;;;;;5.33;5.00;;;;;;;;5072019;28;51247;-65
2021/08/05 10:20:21;;;;;;;;;4.00;4.00;;;;;;;;5072323;27;51173;-66
2021/08/05 10:22:48;;;;;;;;;7.00;6.67;;;;;;;;5071327;27;52063;-66
2021/08/05 10:25:15;;;;;;;;;8.00;8.00;;;;;;;;5071485;27;51035;-67
2021/08/05 10:27:41;;;;;;;;;7.00;7.00;;;;;;;;5072129;27;50932;-66
2021/08/05 10:30:16;;;;;;;;;7.67;7.00;;;;;;;;5072172;27;51082;-66
2021/08/05 10:32:42;;;;;;;;;5.00;5.00;;;;;;;;5071946;27;50995;-66
2021/08/05 10:35:08;;;;;;;;;7.00;7.00;;;;;;;;5072492;28;50962;-67
2021/08/05 10:37:33;;;;;;;;;5.00;5.00;;;;;;;;5071385;27;51211;-64
2021/08/05 10:39:59;;;;;;;;;7.67;4.33;;;;;;;;5070257;28;51141;-66
2021/08/05 10:42:28;;;;;;;;;5.67;5.00;;;;;;;;5071973;27;50994;-67
2021/08/05 10:44:53;;;;;;;;;3.00;3.00;;;;;;;;5071899;27;51037;-66
2021/08/05 10:47:20;;;;;;;;;4.00;4.00;;;;;;;;5071479;27;51187;-65
2021/08/05 10:49:46;;;;;;;;;5.00;4.67;;;;;;;;5071708;27;51129;-66
2021/08/05 10:52:30;;;;;;;;;6.00;5.67;;;;;;;;5071264;27;52950;-65
2021/08/05 10:54:56;;;;;;;;;6.00;5.33;;;;;;;;5070938;28;50799;-65
2021/08/05 10:57:23;;;;;;;;;7.67;7.33;;;;;;;;5071825;27;51006;-66
2021/08/05 10:59:57;;;;;;;;;5.00;5.00;;;;;;;;5071399;28;51009;-64
2021/08/05 11:02:41;;;;;;;;;5.33;5.00;;;;;;;;5070709;27;52082;-67
2021/08/05 11:05:06;;;;;;;;;6.00;5.67;;;;;;;;5071090;28;51097;-66
2021/08/05 11:07:33;;;;;;;;;4.00;4.00;;;;;;;;5070948;27;50804;-66
2021/08/05 11:10:16;;;;;;;;;8.33;7.33;;;;;;;;5070974;27;51008;-65
2021/08/05 11:12:45;;;;;;;;;10.33;10.33;;;;;;;;5070944;27;51886;-67
2021/08/05 11:15:23;;;;;;;;;8.00;7.67;;;;;;;;5071233;27;50985;-67
2021/08/05 11:18:06;;;;;;;;;5.33;5.33;;;;;;;;5070884;27;50866;-68
2021/08/05 11:20:32;;;;;;;;;6.67;5.67;;;;;;;;5068545;27;51208;-65
2021/08/05 11:22:57;;;;;;;;;6.00;6.00;;;;;;;;5073484;28;51860;-65
2021/08/05 11:25:22;;;;;;;;;6.00;6.00;;;;;;;;5073529;27;50978;-65
2021/08/05 11:28:08;;;;;;;;;5.67;5.00;;;;;;;;5075236;27;51013;-66
2021/08/05 11:30:47;;;;;;;;;2.67;2.67;;;;;;;;5060008;28;52116;-65
2021/08/05 11:33:31;;;;;;;;;6.33;6.00;;;;;;;;5074344;27;51161;-65
2021/08/05 11:38:58;;;;;;;;;5.33;5.33;;;;;;;;5074333;27;50988;-66
2021/08/05 11:41:42;;;;;;;;;6.00;6.00;;;;;;;;5074478;28;50924;-66
2021/08/05 11:44:16;;;;;;;;;5.67;5.67;;;;;;;;5074489;28;51834;-66
2021/08/05 11:46:41;;;;;;;;;4.67;4.67;;;;;;;;5074319;27;51179;-65
2021/08/05 11:49:07;;;;;;;;;7.33;7.00;;;;;;;;5074917;27;51008;-66
2021/08/05 11:51:32;;;;;;;;;4.67;4.67;;;;;;;;5074612;27;51037;-66
2021/08/05 11:53:57;;;;;;;;;3.33;2.67;;;;;;;;5073791;27;51209;-66
2021/08/05 11:56:23;;;;;;;;;4.67;4.67;;;;;;;;5074242;27;51131;-66
2021/08/05 11:58:48;;;;;;;;;1.67;1.33;;;;;;;;5073185;28;51328;-65
2021/08/05 12:01:16;;;;;;;;;3.33;3.00;;;;;;;;5074714;27;51034;-67
2021/08/05 12:03:41;;;;;;;;;2.33;1.33;;;;;;;;5073255;27;53422;-67
2021/08/05 12:06:06;;;;;;;;;6.00;6.00;;;;;;;;5069651;27;50891;-66
2021/08/05 12:08:32;;;;;;;;;4.00;4.00;;;;;;;;5074116;27;50871;-66
2021/08/05 12:10:57;;;;;;;;;5.67;5.00;;;;;;;;5074029;27;51046;-66
2021/08/05 12:13:23;;;;;;;;;5.67;5.67;;;;;;;;5073884;28;50874;-66
2021/08/05 12:15:52;;;;;;;;;1.67;1.67;;;;;;;;5074566;28;51399;-65
2021/08/05 12:18:20;;;;;;;;;3.00;3.00;;;;;;;;5074931;27;50993;-66
2021/08/05 12:20:46;;;;;;;;;3.00;3.00;;;;;;;;5074239;27;51223;-67
2021/08/05 12:23:29;;;;;;;;;14.00;13.00;;;;;;;;5073660;27;51703;-65
2021/08/05 12:28:26;;;;;;;;;3.67;3.67;;;;;;;;5073903;27;51367;-66
2021/08/05 12:30:52;;;;;;;;;5.00;4.00;;;;;;;;5072996;27;50947;-66
2021/08/05 12:33:20;;;;;;;;;5.00;4.00;;;;;;;;5073450;27;52294;-66
2021/08/05 12:36:00;;;;;;;;;5.00;4.33;;;;;;;;5073079;27;50931;-66
2021/08/05 12:38:26;;;;;;;;;3.67;3.67;;;;;;;;5073170;27;51114;-66
2021/08/05 12:40:51;;;;;;;;;6.33;5.00;;;;;;;;5073381;27;51171;-65
2021/08/05 12:43:17;;;;;;;;;4.33;4.33;;;;;;;;5073018;27;51165;-66
2021/08/05 12:45:43;;;;;;;;;5.67;5.33;;;;;;;;5073910;27;51066;-65
2021/08/05 12:48:09;;;;;;;;;4.33;4.33;;;;;;;;5073462;27;51002;-65
2021/08/05 12:50:45;;;;;;;;;3.00;3.00;;;;;;;;5073578;27;51095;-66
2021/08/05 12:53:23;;;;;;;;;4.33;4.33;;;;;;;;5072958;27;51304;-66
2021/08/05 12:55:49;;;;;;;;;5.67;4.67;;;;;;;;5072892;27;50972;-65
2021/08/05 12:58:22;;;;;;;;;4.33;4.33;;;;;;;;5071704;28;50922;-65
2021/08/05 13:00:48;;;;;;;;;5.00;5.00;;;;;;;;5073508;27;51287;-66
2021/08/05 13:03:13;;;;;;;;;4.00;4.00;;;;;;;;5073608;27;52318;-66
2021/08/05 13:05:55;;;;;;;;;4.00;4.00;;;;;;;;5071235;28;51105;-65
2021/08/05 13:08:28;;;;;;;;;2.33;2.33;;;;;;;;5070699;28;51135;-66
2021/08/05 13:10:53;;;;;;;;;5.00;5.00;;;;;;;;5072780;27;50959;-65
2021/08/05 13:13:38;;;;;;;;;6.00;6.00;;;;;;;;5069404;28;50912;-65
2021/08/05 13:16:20;;;;;;;;;5.00;5.00;;;;;;;;5060213;27;51051;-65
2021/08/05 13:19:06;;;;;;;;;3.00;3.00;;;;;;;;5073229;27;51153;-67
2021/08/05 13:21:35;;;;;;;;;3.33;3.33;;;;;;;;5067571;27;50978;-68
2021/08/05 13:24:20;;;;;;;;;3.67;3.00;;;;;;;;5072751;27;51768;-67
2021/08/05 13:26:49;;;;;;;;;6.00;5.33;;;;;;;;5073101;28;51079;-66
2021/08/05 13:29:39;;;;;;;;;6.33;5.67;;;;;;;;5073116;27;50907;-66
2021/08/05 13:32:12;;;;;;;;;2.00;2.00;;;;;;;;5071700;28;51158;-67
2021/08/05 13:34:38;;;;;;;;;3.00;3.00;;;;;;;;5072997;27;51851;-66
2021/08/05 13:37:03;;;;;;;;;2.33;2.33;;;;;;;;5072314;27;51160;-67
2021/08/05 13:39:48;;;;;;;;;2.00;2.00;;;;;;;;5071971;27;51079;-65
2021/08/05 13:42:14;;;;;;;;;4.00;4.00;;;;;;;;5070443;28;50979;-66
2021/08/05 13:44:40;;;;;;;;;4.00;4.00;;;;;;;;5071142;28;52208;-67
2021/08/05 13:47:05;;;;;;;;;3.00;3.00;;;;;;;;5072909;27;50907;-66
2021/08/05 13:49:30;;;;;;;;;2.00;2.00;;;;;;;;5054513;28;51112;-65
2021/08/05 13:51:59;;;;;;;;;2.00;2.00;;;;;;;;5073236;27;51052;-66
2021/08/05 13:54:24;;;;;;;;;2.67;2.00;;;;;;;;5072639;27;51109;-66
2021/08/05 13:56:49;;;;;;;;;2.33;2.33;;;;;;;;5072910;27;51052;-66
2021/08/05 13:59:15;;;;;;;;;4.00;4.00;;;;;;;;5072589;27;51049;-66
2021/08/05 14:01:40;;;;;;;;;3.00;3.00;;;;;;;;5072829;28;51301;-66
2021/08/05 14:04:05;;;;;;;;;2.00;2.00;;;;;;;;5071932;27;52040;-66
2021/08/05 14:06:30;;;;;;;;;3.00;3.00;;;;;;;;5072022;28;51096;-66
2021/08/05 14:08:56;;;;;;;;;3.33;3.00;;;;;;;;5071253;27;50999;-66
2021/08/05 14:11:21;;;;;;;;;2.33;2.33;;;;;;;;5072502;27;51009;-66
2021/08/05 14:13:46;;;;;;;;;3.50;3.50;;;;;;;;5071157;27;51784;-67
2021/08/05 14:16:11;;;;;;;;;3.00;3.00;;;;;;;;5071547;27;51030;-66
2021/08/05 14:18:37;;;;;;;;;3.00;3.00;;;;;;;;5071465;27;50897;-66
2021/08/05 14:21:02;;;;;;;;;4.00;4.00;;;;;;;;5072006;27;51061;-65
2021/08/05 14:23:27;;;;;;;;;3.00;3.00;;;;;;;;5071092;28;51840;-66
2021/08/05 14:25:54;;;;;;;;;4.00;4.00;;;;;;;;5071285;27;51048;-65
2021/08/05 14:28:20;;;;;;;;;2.67;2.00;;;;;;;;5070008;28;50942;-66
2021/08/05 14:30:45;;;;;;;;;5.00;5.00;;;;;;;;5071419;28;51224;-65
2021/08/05 14:33:11;;;;;;;;;3.00;3.00;;;;;;;;5070990;27;51041;-66